createdAt,value
2022-10-05T00:00:50.100Z,10.67
2022-10-05T00:03:41.251Z,10.37
2022-10-05T00:06:30.431Z,11.90
2022-10-05T00:09:18.245Z,11.50
2022-10-05T00:12:20.757Z,11.40
2022-10-05T00:15:11.824Z,11.70
2022-10-05T00:17:57.564Z,9.73
2022-10-05T00:20:43.639Z,9.53
2022-10-05T00:23:32.809Z,9.83
2022-10-05T00:26:22.245Z,9.83
2022-10-05T00:29:17.474Z,8.17
2022-10-05T00:32:03.530Z,9.23
2022-10-05T00:34:49.342Z,10.13
2022-10-05T00:37:35.594Z,8.90
2022-10-05T00:40:21.376Z,9.63
2022-10-05T00:43:07.314Z,9.80
2022-10-05T00:45:56.837Z,10.53
2022-10-05T00:49:03.325Z,9.53
2022-10-05T00:51:55.865Z,10.90
2022-10-05T00:54:47.263Z,10.77
2022-10-05T00:57:45.691Z,10.60
2022-10-05T01:00:33.625Z,9.70
2022-10-05T01:03:21.863Z,10.43
2022-10-05T01:06:17.165Z,11.30
2022-10-05T01:09:18.696Z,11.00
2022-10-05T01:12:09.224Z,11.00
2022-10-05T01:14:58.257Z,11.50
2022-10-05T01:17:50.310Z,10.90
2022-10-05T01:20:54.781Z,10.07
2022-10-05T01:23:41.134Z,10.00
2022-10-05T01:26:36.660Z,11.03
2022-10-05T01:29:25.699Z,10.07
2022-10-05T01:32:11.852Z,11.50
2022-10-05T01:35:08.334Z,11.80
2022-10-05T01:37:54.425Z,10.40
2022-10-05T01:40:45.386Z,10.83
2022-10-05T01:43:47.641Z,10.17
2022-10-05T01:46:39.143Z,10.47
2022-10-05T01:49:34.330Z,9.80
2022-10-05T01:52:45.120Z,9.50
2022-10-05T01:55:36.830Z,9.07
2022-10-05T01:58:33.772Z,9.37
2022-10-05T02:01:28.943Z,10.23
2022-10-05T02:04:37.264Z,10.23
2022-10-05T02:07:28.188Z,11.37
2022-10-05T02:10:23.556Z,10.07
2022-10-05T02:13:18.805Z,10.00
2022-10-05T02:16:09.404Z,10.17
2022-10-05T02:18:59.215Z,9.03
2022-10-05T02:21:47.313Z,9.50
2022-10-05T02:24:40.240Z,10.47
2022-10-05T02:27:28.902Z,10.30
2022-10-05T02:30:17.214Z,10.00
2022-10-05T02:33:07.364Z,10.47
2022-10-05T02:35:53.092Z,9.60
2022-10-05T02:38:54.080Z,9.10
2022-10-05T02:42:05.876Z,9.80
2022-10-05T02:44:51.480Z,8.60
2022-10-05T02:48:00.607Z,9.97
2022-10-05T02:50:54.106Z,9.50
2022-10-05T02:53:51.999Z,10.00
2022-10-05T02:56:42.220Z,8.97
2022-10-05T02:59:49.578Z,9.83
2022-10-05T03:02:36.832Z,10.40
2022-10-05T03:05:24.871Z,10.97
2022-10-05T03:08:17.113Z,9.77
2022-10-05T03:11:09.412Z,9.90
2022-10-05T03:14:14.061Z,10.37
2022-10-05T03:17:19.062Z,11.47
2022-10-05T03:20:18.224Z,10.20
2022-10-05T03:23:05.652Z,10.23
2022-10-05T03:26:12.888Z,10.20
2022-10-05T03:29:02.310Z,10.93
2022-10-05T03:31:51.316Z,10.60
2022-10-05T03:34:37.635Z,10.40
2022-10-05T03:37:28.032Z,10.40
2022-10-05T03:40:30.050Z,10.17
2022-10-05T03:43:32.859Z,10.40
2022-10-05T03:46:45.923Z,11.47
2022-10-05T03:49:50.828Z,10.80
2022-10-05T03:52:39.459Z,11.10
2022-10-05T03:55:41.166Z,11.50
2022-10-05T03:58:36.538Z,9.60
2022-10-05T04:01:26.204Z,16.07
2022-10-05T04:04:14.475Z,13.20
2022-10-05T04:07:00.718Z,14.90
2022-10-05T04:09:50.457Z,14.87
2022-10-05T04:12:44.549Z,15.93
2022-10-05T04:15:33.145Z,15.67
2022-10-05T04:18:26.244Z,17.00
2022-10-05T04:21:22.716Z,18.27
2022-10-05T04:24:18.883Z,17.93
2022-10-05T04:27:28.851Z,19.57
2022-10-05T04:30:22.202Z,20.70
2022-10-05T04:33:15.974Z,19.17
2022-10-05T04:36:09.474Z,21.47
2022-10-05T04:39:01.535Z,21.23
2022-10-05T04:42:09.285Z,24.83
2022-10-05T04:45:02.866Z,19.67
2022-10-05T04:48:03.422Z,20.87
2022-10-05T04:50:49.586Z,20.73
2022-10-05T04:53:53.714Z,20.33
2022-10-05T04:56:45.038Z,21.40
2022-10-05T04:59:50.129Z,23.13
2022-10-05T05:02:47.993Z,19.83
2022-10-05T05:06:05.355Z,22.60
2022-10-05T05:09:12.924Z,20.67
2022-10-05T05:12:00.548Z,21.97
2022-10-05T05:14:49.964Z,22.33
2022-10-05T05:17:35.709Z,22.40
2022-10-05T05:20:38.167Z,22.20
2022-10-05T05:23:36.026Z,21.00
2022-10-05T05:26:25.597Z,19.90
2022-10-05T05:29:20.385Z,21.00
2022-10-05T05:32:05.801Z,20.27
2022-10-05T05:35:00.768Z,19.43
2022-10-05T05:37:46.684Z,18.97
2022-10-05T05:40:43.826Z,18.27
2022-10-05T05:43:29.623Z,19.10
2022-10-05T05:46:34.017Z,19.40
2022-10-05T05:49:47.988Z,18.47
2022-10-05T05:52:43.622Z,19.37
2022-10-05T05:55:36.293Z,19.93
2022-10-05T05:58:39.179Z,20.57
2022-10-05T06:01:44.194Z,19.87
2022-10-05T06:04:37.331Z,17.57
2022-10-05T06:07:30.373Z,18.87
2022-10-05T06:10:27.206Z,20.33
2022-10-05T06:13:50.340Z,18.67
2022-10-05T06:17:02.607Z,17.90
2022-10-05T06:19:49.317Z,19.33
2022-10-05T06:22:41.323Z,19.43
2022-10-05T06:25:37.298Z,17.67
2022-10-05T06:28:25.178Z,19.10
2022-10-05T06:31:24.714Z,19.87
2022-10-05T06:34:17.992Z,19.13
2022-10-05T06:37:07.604Z,19.67
2022-10-05T06:40:01.367Z,22.43
2022-10-05T06:43:04.533Z,21.00
2022-10-05T06:45:56.448Z,20.87
2022-10-05T06:49:14.599Z,20.03
2022-10-05T06:52:38.093Z,19.87
2022-10-05T06:55:31.135Z,19.37
2022-10-05T06:58:16.724Z,18.17
2022-10-05T07:01:10.844Z,20.50
2022-10-05T07:04:17.534Z,19.63
2022-10-05T07:07:09.247Z,19.90
2022-10-05T07:09:55.309Z,18.80
2022-10-05T07:12:50.825Z,20.20
2022-10-05T07:15:56.548Z,19.50
2022-10-05T07:18:46.999Z,18.60
2022-10-05T07:21:54.586Z,17.73
2022-10-05T07:24:47.229Z,17.53
2022-10-05T07:27:35.218Z,16.40
2022-10-05T07:30:21.382Z,18.23
2022-10-05T07:33:12.790Z,17.73
2022-10-05T07:36:47.177Z,16.63
2022-10-05T07:39:59.805Z,16.60
2022-10-05T07:43:00.392Z,20.13
2022-10-05T07:45:51.889Z,17.43
2022-10-05T07:48:53.313Z,17.50
2022-10-05T07:51:46.055Z,18.07
2022-10-05T07:54:42.705Z,17.80
2022-10-05T07:57:34.797Z,20.13
2022-10-05T08:00:21.719Z,17.43
2022-10-05T08:03:12.090Z,18.57
2022-10-05T08:05:59.206Z,18.47
2022-10-05T08:08:57.385Z,18.60
2022-10-05T08:11:49.543Z,18.83
2022-10-05T08:14:48.170Z,18.33
2022-10-05T08:17:46.003Z,18.27
2022-10-05T08:20:43.029Z,19.50
2022-10-05T08:23:38.508Z,20.80
2022-10-05T08:26:47.604Z,19.83
2022-10-05T08:29:38.673Z,23.63
2022-10-05T08:32:26.306Z,23.60
2022-10-05T08:35:18.144Z,23.67
2022-10-05T08:38:06.371Z,25.17
2022-10-05T08:41:09.664Z,24.23
2022-10-05T08:44:10.457Z,24.60
2022-10-05T08:46:56.425Z,26.23
2022-10-05T08:49:57.540Z,23.33
2022-10-05T08:53:02.273Z,22.37
2022-10-05T08:55:47.653Z,23.07
2022-10-05T08:58:48.978Z,23.87
2022-10-05T09:01:40.556Z,22.20
2022-10-05T09:04:49.249Z,24.33
2022-10-05T09:07:55.571Z,27.17
2022-10-05T09:10:41.347Z,25.07
2022-10-05T09:13:27.155Z,25.47
2022-10-05T09:16:31.953Z,25.73
2022-10-05T09:19:40.845Z,25.50
2022-10-05T09:22:45.653Z,24.10
2022-10-05T09:25:42.349Z,24.03
2022-10-05T09:28:43.304Z,25.80
2022-10-05T09:31:44.181Z,24.60
2022-10-05T09:34:30.494Z,23.97
2022-10-05T09:37:20.045Z,23.60
2022-10-05T09:40:05.564Z,21.67
2022-10-05T09:43:10.448Z,20.70
2022-10-05T09:45:59.493Z,21.97
2022-10-05T09:48:57.137Z,20.90
2022-10-05T09:52:01.794Z,21.70
2022-10-05T09:55:08.141Z,20.40
2022-10-05T09:58:02.887Z,21.73
2022-10-05T10:01:03.814Z,20.33
2022-10-05T10:04:01.727Z,19.70
2022-10-05T10:06:51.185Z,18.60
2022-10-05T10:09:45.559Z,19.63
2022-10-05T10:12:37.224Z,20.33
2022-10-05T10:15:48.211Z,21.43
2022-10-05T10:18:37.095Z,20.03
2022-10-05T10:21:23.067Z,18.50
2022-10-05T10:24:27.944Z,17.60
2022-10-05T10:27:13.490Z,18.83
2022-10-05T10:30:07.852Z,19.50
2022-10-05T10:33:11.170Z,19.37
2022-10-05T10:36:02.975Z,18.87
2022-10-05T10:38:59.985Z,18.70
2022-10-05T10:42:04.466Z,18.43
2022-10-05T10:45:01.930Z,19.00
2022-10-05T10:47:51.737Z,18.50
2022-10-05T10:50:45.111Z,18.30
2022-10-05T10:53:30.826Z,19.10
2022-10-05T10:56:30.233Z,20.13
2022-10-05T10:59:43.408Z,20.27
2022-10-05T11:02:48.192Z,18.90
2022-10-05T11:05:39.202Z,17.17
2022-10-05T11:08:37.192Z,17.33
2022-10-05T11:11:41.583Z,15.50
2022-10-05T11:14:39.067Z,15.70
2022-10-05T11:17:33.273Z,13.70
2022-10-05T11:20:28.563Z,12.23
2022-10-05T11:23:35.328Z,11.50
2022-10-05T11:26:32.447Z,8.90
2022-10-05T11:29:19.323Z,9.37
2022-10-05T11:32:31.205Z,7.50
2022-10-05T11:35:16.821Z,8.00
2022-10-05T11:38:02.604Z,8.03
2022-10-05T11:41:08.495Z,7.50
2022-10-05T11:44:21.238Z,8.30
2022-10-05T11:47:16.989Z,7.37
2022-10-05T11:50:18.358Z,7.30
2022-10-05T11:53:14.588Z,7.23
2022-10-05T11:56:00.102Z,7.60
2022-10-05T11:59:02.333Z,6.10
2022-10-05T12:02:07.919Z,6.20
2022-10-05T12:05:04.367Z,6.67
2022-10-05T12:07:54.493Z,7.43
2022-10-05T12:10:49.326Z,7.07
2022-10-05T12:13:47.294Z,7.33
2022-10-05T12:16:39.567Z,6.57
2022-10-05T12:19:30.070Z,6.50
2022-10-05T12:22:20.322Z,5.60
2022-10-05T12:25:15.276Z,5.90
2022-10-05T12:28:07.013Z,6.27
2022-10-05T12:31:12.011Z,7.53
2022-10-05T12:34:03.336Z,6.00
2022-10-05T12:37:05.208Z,6.33
2022-10-05T12:39:56.444Z,7.00
2022-10-05T12:42:50.264Z,6.43
2022-10-05T12:45:55.123Z,6.87
2022-10-05T12:48:43.939Z,6.20
2022-10-05T12:51:35.437Z,5.83
2022-10-05T12:54:38.269Z,6.73
2022-10-05T12:57:27.124Z,5.97
2022-10-05T13:00:18.944Z,6.40
2022-10-05T13:03:18.559Z,6.33
2022-10-05T13:06:15.885Z,5.80
2022-10-05T13:09:10.426Z,5.40
2022-10-05T13:11:58.420Z,5.80
2022-10-05T13:15:00.423Z,6.20
2022-10-05T13:17:58.764Z,5.73
2022-10-05T13:20:46.788Z,5.70
2022-10-05T13:23:37.094Z,6.33
2022-10-05T13:26:25.388Z,6.10
2022-10-05T13:29:22.041Z,5.57
2022-10-05T13:32:15.147Z,5.30
2022-10-05T13:35:21.794Z,5.10
2022-10-05T13:38:19.682Z,5.73
2022-10-05T13:41:24.438Z,5.47
2022-10-05T13:44:16.006Z,5.30
2022-10-05T13:47:35.167Z,5.20
2022-10-05T13:50:34.452Z,5.50
2022-10-05T13:53:24.042Z,5.60
2022-10-05T13:56:42.518Z,5.70
2022-10-05T13:59:33.654Z,4.67
2022-10-05T14:02:27.348Z,5.43
2022-10-05T14:05:27.393Z,6.00
2022-10-05T14:08:17.431Z,5.43
2022-10-05T14:11:21.312Z,6.00
2022-10-05T14:14:10.230Z,5.23
2022-10-05T14:17:00.400Z,4.97
2022-10-05T14:19:48.361Z,5.23
2022-10-05T14:22:41.324Z,5.37
2022-10-05T14:25:27.797Z,6.13
2022-10-05T14:28:13.370Z,5.87
2022-10-05T14:31:16.444Z,6.40
2022-10-05T14:34:21.309Z,6.23
2022-10-05T14:37:20.139Z,6.10
2022-10-05T14:40:22.442Z,6.30
2022-10-05T14:43:14.517Z,6.83
2022-10-05T14:46:14.867Z,5.63
2022-10-05T14:49:21.107Z,6.10
2022-10-05T14:52:28.712Z,6.70
2022-10-05T14:55:17.639Z,6.13
2022-10-05T14:58:08.273Z,6.17
2022-10-05T15:01:02.568Z,6.43
2022-10-05T15:03:48.276Z,6.33
2022-10-05T15:06:39.261Z,6.73
2022-10-05T15:09:34.127Z,6.03
2022-10-05T15:12:25.494Z,6.40
2022-10-05T15:15:28.022Z,6.30
2022-10-05T15:18:32.142Z,6.43
2022-10-05T15:21:23.666Z,6.07
2022-10-05T15:24:20.698Z,6.80
2022-10-05T15:27:13.213Z,6.13
2022-10-05T15:30:09.580Z,6.47
2022-10-05T15:33:13.593Z,6.07
2022-10-05T15:36:19.689Z,5.63
2022-10-05T15:39:38.892Z,6.37
2022-10-05T15:42:32.963Z,6.47
2022-10-05T15:45:32.469Z,5.90
2022-10-05T15:48:20.973Z,6.40
2022-10-05T15:51:15.282Z,5.93
2022-10-05T15:54:32.616Z,6.03
2022-10-05T15:57:40.753Z,6.20
2022-10-05T16:00:27.522Z,5.30
2022-10-05T16:03:23.324Z,5.57
2022-10-05T16:06:36.883Z,5.30
2022-10-05T16:09:28.605Z,6.40
2022-10-05T16:12:33.017Z,6.10
2022-10-05T16:15:26.325Z,6.07
2022-10-05T16:18:20.817Z,6.27
2022-10-05T16:21:09.491Z,5.80
2022-10-05T16:24:09.145Z,5.60
2022-10-05T16:26:59.979Z,6.20
2022-10-05T16:29:59.884Z,5.63
2022-10-05T16:32:52.005Z,5.93
2022-10-05T16:35:53.766Z,6.13
2022-10-05T16:38:50.227Z,7.00
2022-10-05T16:41:55.206Z,6.73
2022-10-05T16:44:49.219Z,6.97
2022-10-05T16:47:39.883Z,6.73
2022-10-05T16:50:46.762Z,7.00
2022-10-05T16:53:37.283Z,7.60
2022-10-05T16:56:25.186Z,8.87
2022-10-05T16:59:11.190Z,7.53
2022-10-05T17:02:00.583Z,8.20
2022-10-05T17:04:54.225Z,9.17
2022-10-05T17:07:52.955Z,8.47
2022-10-05T17:10:42.427Z,7.40
2022-10-05T17:13:31.352Z,10.57
2022-10-05T17:16:35.755Z,9.20
2022-10-05T17:19:26.255Z,8.47
2022-10-05T17:22:13.458Z,10.20
2022-10-05T17:25:10.907Z,10.00
2022-10-05T17:27:58.145Z,9.90
2022-10-05T17:30:59.399Z,9.87
2022-10-05T17:34:01.455Z,10.70
2022-10-05T17:36:57.571Z,8.90
2022-10-05T17:39:48.256Z,10.50
2022-10-05T17:42:37.004Z,8.20
2022-10-05T17:45:32.376Z,8.60
2022-10-05T17:48:36.411Z,8.97
2022-10-05T17:51:47.500Z,10.70
2022-10-05T17:55:11.777Z,10.50
2022-10-05T17:57:59.600Z,9.90
2022-10-05T18:00:58.735Z,10.00
2022-10-05T18:03:50.224Z,9.30
2022-10-05T18:06:37.598Z,10.07
2022-10-05T18:09:24.194Z,10.10
2022-10-05T18:12:19.251Z,8.87
2022-10-05T18:15:08.072Z,10.07
2022-10-05T18:17:57.064Z,10.40
2022-10-05T18:21:02.926Z,10.37
2022-10-05T18:23:56.797Z,9.43
2022-10-05T18:26:43.549Z,9.83
2022-10-05T18:29:50.611Z,7.93
2022-10-05T18:33:03.416Z,8.20
2022-10-05T18:35:52.897Z,8.60
2022-10-05T18:38:42.074Z,7.60
2022-10-05T18:41:37.050Z,6.10
2022-10-05T18:44:44.452Z,7.07
2022-10-05T18:47:55.426Z,6.30
2022-10-05T18:50:50.845Z,5.50
2022-10-05T18:53:37.037Z,5.60
2022-10-05T18:56:28.394Z,5.50
2022-10-05T18:59:17.931Z,4.73
2022-10-05T19:02:11.435Z,5.40
2022-10-05T19:04:57.562Z,5.27
2022-10-05T19:07:43.360Z,5.40
2022-10-05T19:10:37.962Z,4.83
2022-10-05T19:13:42.469Z,5.17
2022-10-05T19:16:46.769Z,4.57
2022-10-05T19:19:51.458Z,5.10
2022-10-05T19:22:43.051Z,5.43
2022-10-05T19:25:29.801Z,4.33
2022-10-05T19:28:27.279Z,5.00
2022-10-05T19:31:13.070Z,5.80
2022-10-05T19:34:05.028Z,7.17
2022-10-05T19:37:26.511Z,5.40
2022-10-05T19:40:28.687Z,5.30
2022-10-05T19:43:40.705Z,5.30
2022-10-05T19:46:27.517Z,6.13
2022-10-05T19:49:13.108Z,5.20
2022-10-05T19:51:59.047Z,5.43
2022-10-05T19:54:45.333Z,5.50
2022-10-05T19:57:32.035Z,5.17
2022-10-05T20:00:37.992Z,5.03
2022-10-05T20:03:27.433Z,4.70
2022-10-05T20:06:13.205Z,5.13
2022-10-05T20:09:04.136Z,5.47
2022-10-05T20:11:54.040Z,5.30
2022-10-05T20:14:59.825Z,4.90
2022-10-05T20:18:06.180Z,7.10
2022-10-05T20:20:51.993Z,4.50
2022-10-05T20:23:38.087Z,6.10
2022-10-05T20:26:58.406Z,4.90
2022-10-05T20:29:45.184Z,5.27
2022-10-05T20:32:31.968Z,4.67
2022-10-05T20:35:18.741Z,5.43
2022-10-05T20:38:04.286Z,5.20
2022-10-05T20:40:50.694Z,5.27
2022-10-05T20:43:38.904Z,5.00
2022-10-05T20:46:24.458Z,5.27
2022-10-05T20:49:11.402Z,4.90
2022-10-05T20:51:57.549Z,5.10
2022-10-05T20:54:43.485Z,5.07
2022-10-05T20:57:29.403Z,4.80
2022-10-05T21:00:16.807Z,4.90
2022-10-05T21:03:02.707Z,4.67
2022-10-05T21:05:48.242Z,4.53
2022-10-05T21:08:36.150Z,5.47
2022-10-05T21:11:22.193Z,4.50
2022-10-05T21:14:08.409Z,4.77
2022-10-05T21:16:53.977Z,4.40
2022-10-05T21:19:40.236Z,5.07
2022-10-05T21:22:25.810Z,5.10
2022-10-05T21:25:11.756Z,5.10
2022-10-05T21:27:57.604Z,4.47
2022-10-05T21:30:43.276Z,4.50
2022-10-05T21:33:29.850Z,4.80
2022-10-05T21:36:17.191Z,4.93
2022-10-05T21:39:03.404Z,5.57
2022-10-05T21:41:49.870Z,4.37
2022-10-05T21:44:35.701Z,4.80
2022-10-05T21:47:21.435Z,5.17
2022-10-05T21:50:08.495Z,4.93
2022-10-05T21:52:55.146Z,4.90
2022-10-05T21:55:42.057Z,4.60
2022-10-05T21:58:28.790Z,4.60
2022-10-05T22:01:16.868Z,4.47
2022-10-05T22:04:06.858Z,4.70
2022-10-05T22:06:52.935Z,5.73
2022-10-05T22:09:38.835Z,5.00
2022-10-05T22:12:26.304Z,4.80
2022-10-05T22:15:11.732Z,4.80
2022-10-05T22:17:58.328Z,4.70
2022-10-05T22:20:44.989Z,4.70
2022-10-05T22:23:31.049Z,5.40
2022-10-05T22:26:18.835Z,4.60
2022-10-05T22:29:04.523Z,6.03
2022-10-05T22:31:50.751Z,5.37
2022-10-05T22:34:36.978Z,5.10
2022-10-05T22:37:22.767Z,5.60
2022-10-05T22:40:10.136Z,4.93
2022-10-05T22:42:56.567Z,4.80
2022-10-05T22:45:42.764Z,5.20
2022-10-05T22:48:28.951Z,5.80
2022-10-05T22:51:16.057Z,5.20
2022-10-05T22:54:02.688Z,5.37
2022-10-05T22:56:48.393Z,5.60
2022-10-05T22:59:34.246Z,5.70
2022-10-05T23:02:20.746Z,5.27
2022-10-05T23:05:07.455Z,6.07
2022-10-05T23:07:53.405Z,5.27
2022-10-05T23:10:40.243Z,5.10
2022-10-05T23:13:26.089Z,5.70
2022-10-05T23:16:14.503Z,5.80
2022-10-05T23:19:00.892Z,5.47
2022-10-05T23:21:46.462Z,6.13
2022-10-05T23:24:32.634Z,5.50
2022-10-05T23:27:18.318Z,5.30
2022-10-05T23:30:04.978Z,5.90
2022-10-05T23:32:50.720Z,5.10
2022-10-05T23:35:37.074Z,5.67
2022-10-05T23:38:23.272Z,6.00
2022-10-05T23:41:09.933Z,6.63
2022-10-05T23:43:55.792Z,5.70
2022-10-05T23:46:41.376Z,5.20
2022-10-05T23:49:27.427Z,5.33
2022-10-05T23:52:13.563Z,5.90
2022-10-05T23:54:59.676Z,5.03
2022-10-05T23:57:45.401Z,5.20
